Time;durP1;ratioP1;P1;durP2;ratioP2;P2;SDS_P1;SDS_P2;PMS_P1;PMS_P2;Temp;Humidity;BMP_temperature;BMP_pressure;BME280_temperature;BME280_humidity;BME280_pressure;Samples;Min_cycle;Max_cycle;Signal;HPM_P1;HPM_P2
2023/02/04 00:01:04;;;;;;;10.85;6.03;;;21.90;99.90;;;;;;5030478;28;20037;-56
2023/02/04 00:03:30;;;;;;;8.43;5.78;;;21.90;99.90;;;;;;5029223;28;20036;-56
2023/02/04 00:05:56;;;;;;;9.52;5.97;;;21.90;99.90;;;;;;5029679;28;20647;-55
2023/02/04 00:08:21;;;;;;;6.80;5.45;;;21.90;99.90;;;;;;5012672;28;20501;-56
2023/02/04 00:10:47;;;;;;;8.32;6.05;;;21.80;99.90;;;;;;5030247;28;20025;-57
2023/02/04 00:13:13;;;;;;;7.85;5.35;;;21.80;99.90;;;;;;5029848;28;20048;-57
2023/02/04 00:15:39;;;;;;;10.38;5.90;;;21.80;99.90;;;;;;5027849;28;20359;-56
2023/02/04 00:18:06;;;;;;;7.88;6.03;;;21.80;99.90;;;;;;5031689;28;20112;-57
2023/02/04 00:20:32;;;;;;;7.28;6.03;;;21.80;99.90;;;;;;5046841;28;20025;-57
2023/02/04 00:22:58;;;;;;;7.90;5.40;;;21.80;99.90;;;;;;5032246;28;20030;-58
2023/02/04 00:25:23;;;;;;;7.20;5.22;;;21.80;99.90;;;;;;5031950;28;20048;-57
2023/02/04 00:27:49;;;;;;;8.65;6.38;;;21.80;99.90;;;;;;5032044;28;20029;-58
2023/02/04 00:30:15;;;;;;;7.45;5.65;;;21.70;99.90;;;;;;5031969;28;20429;-57
2023/02/04 00:32:41;;;;;;;7.88;5.30;;;21.70;99.90;;;;;;5047368;28;20501;-57
2023/02/04 00:35:07;;;;;;;10.85;6.78;;;21.70;99.90;;;;;;5032174;28;20109;-58
2023/02/04 00:37:33;;;;;;;7.05;5.65;;;21.70;99.90;;;;;;5032031;28;20034;-58
2023/02/04 00:39:58;;;;;;;9.00;4.63;;;21.70;99.90;;;;;;5035243;28;20025;-58
2023/02/04 00:42:24;;;;;;;7.65;5.07;;;21.60;99.90;;;;;;5034914;28;20025;-57
2023/02/04 00:44:50;;;;;;;9.05;6.20;;;21.60;99.90;;;;;;5034645;28;20029;-56
2023/02/04 00:47:16;;;;;;;8.73;6.32;;;21.60;99.90;;;;;;5043472;28;20090;-58
2023/02/04 00:49:41;;;;;;;8.25;5.57;;;21.60;99.90;;;;;;5034484;28;20131;-56
2023/02/04 00:52:07;;;;;;;8.05;5.70;;;21.60;99.90;;;;;;5033700;28;20063;-58
2023/02/04 00:54:33;;;;;;;7.78;5.10;;;21.60;99.90;;;;;;5033092;28;20083;-58
2023/02/04 00:56:58;;;;;;;9.68;6.25;;;21.60;99.90;;;;;;5034008;28;20109;-58
2023/02/04 00:59:24;;;;;;;8.52;6.20;;;21.50;99.90;;;;;;5048740;22;20009;-47
2023/02/04 01:01:50;;;;;;;9.10;5.43;;;21.50;99.90;;;;;;5042537;28;20045;-47
2023/02/04 01:04:16;;;;;;;7.60;5.57;;;21.50;99.90;;;;;;5034245;28;20025;-47
2023/02/04 01:06:42;;;;;;;7.32;5.63;;;21.50;99.90;;;;;;5035240;28;20504;-47
2023/02/04 01:09:08;;;;;;;9.85;5.20;;;21.40;99.90;;;;;;5035819;28;20029;-47
2023/02/04 01:11:35;;;;;;;7.30;4.88;;;21.40;99.90;;;;;;5034019;28;20043;-47
2023/02/04 01:14:01;;;;;;;10.02;6.20;;;21.40;99.90;;;;;;5047568;28;20047;-47
2023/02/04 01:16:27;;;;;;;8.30;5.93;;;21.40;99.90;;;;;;5053052;28;20136;-48
2023/02/04 01:18:54;;;;;;;7.70;5.13;;;21.40;99.90;;;;;;5052862;28;20036;-47
2023/02/04 01:21:22;;;;;;;6.88;5.47;;;21.40;99.90;;;;;;5053399;28;20021;-46
2023/02/04 01:23:49;;;;;;;8.43;5.55;;;21.30;99.90;;;;;;5036000;28;20078;-46
2023/02/04 01:26:15;;;;;;;7.65;5.05;;;21.30;99.90;;;;;;5053797;28;20609;-46
2023/02/04 01:28:41;;;;;;;7.97;5.18;;;21.30;99.90;;;;;;5053593;28;20037;-46
2023/02/04 01:31:07;;;;;;;8.38;5.95;;;21.30;99.90;;;;;;5053540;28;20017;-46
2023/02/04 01:33:32;;;;;;;8.13;5.65;;;21.30;99.90;;;;;;5035866;28;20079;-46
2023/02/04 01:35:58;;;;;;;9.25;5.70;;;21.30;99.90;;;;;;5053545;28;20040;-47
2023/02/04 01:38:24;;;;;;;6.78;5.72;;;21.20;99.90;;;;;;5053581;28;20231;-46
2023/02/04 01:40:50;;;;;;;9.57;5.93;;;21.20;99.90;;;;;;5053441;28;20424;-47
2023/02/04 01:43:17;;;;;;;8.55;5.95;;;21.20;99.90;;;;;;5053358;28;20017;-47
2023/02/04 01:45:44;;;;;;;8.13;5.73;;;21.20;99.90;;;;;;5050820;28;20418;-45
2023/02/04 01:48:12;;;;;;;7.60;5.38;;;21.20;99.90;;;;;;5053450;28;20101;-46
2023/02/04 01:50:38;;;;;;;7.15;5.05;;;21.20;99.90;;;;;;5053149;28;20032;-46
2023/02/04 01:53:04;;;;;;;7.97;4.85;;;21.20;99.90;;;;;;5053718;28;20494;-47
2023/02/04 01:55:32;;;;;;;9.13;5.13;;;21.20;99.90;;;;;;5054810;28;20361;-48
2023/02/04 01:57:58;;;;;;;9.63;6.20;;;21.20;99.90;;;;;;5054785;28;20021;-47
2023/02/04 02:00:29;;;;;;;7.47;5.38;;;21.10;99.90;;;;;;5054286;28;20488;-48
2023/02/04 02:02:56;;;;;;;7.90;4.95;;;21.10;99.90;;;;;;5036521;28;20385;-47
2023/02/04 02:05:35;;;;;;;9.38;5.97;;;21.10;99.90;;;;;;5036420;28;20025;-48
2023/02/04 02:08:03;;;;;;;9.38;5.43;;;21.10;99.90;;;;;;5054599;28;20018;-49
2023/02/04 02:10:30;;;;;;;8.10;5.63;;;21.10;99.90;;;;;;5054502;28;20507;-48
2023/02/04 02:12:56;;;;;;;8.57;5.07;;;21.10;99.90;;;;;;5054131;28;20540;-48
2023/02/04 02:15:23;;;;;;;6.85;5.07;;;21.10;99.90;;;;;;5054143;28;20021;-48
2023/02/04 02:17:50;;;;;;;8.68;5.43;;;21.10;99.90;;;;;;5054223;28;20053;-48
2023/02/04 02:20:19;;;;;;;7.65;4.93;;;21.00;99.90;;;;;;5053878;28;20039;-48
2023/02/04 02:22:44;;;;;;;5.93;4.45;;;21.00;99.90;;;;;;5053961;28;20106;-48
2023/02/04 02:25:12;;;;;;;7.72;4.45;;;21.00;99.90;;;;;;5054043;28;20048;-48
2023/02/04 02:27:38;;;;;;;8.68;5.07;;;21.00;99.90;;;;;;5054041;28;20028;-48
2023/02/04 02:30:06;;;;;;;6.93;5.10;;;21.00;99.90;;;;;;5036381;28;20033;-48
2023/02/04 02:32:33;;;;;;;7.00;4.97;;;21.00;99.90;;;;;;5054094;28;20044;-48
2023/02/04 02:34:59;;;;;;;7.45;4.65;;;21.00;99.90;;;;;;5036021;28;20096;-48
2023/02/04 02:37:25;;;;;;;6.70;4.75;;;20.90;99.90;;;;;;5035883;28;20469;-48
2023/02/04 02:39:50;;;;;;;7.13;5.65;;;20.90;99.90;;;;;;5053815;28;20029;-48
2023/02/04 02:42:17;;;;;;;7.30;4.80;;;20.90;99.90;;;;;;5053753;28;20032;-48
2023/02/04 02:44:45;;;;;;;4.18;3.72;;;20.90;99.90;;;;;;5053648;28;20028;-48
2023/02/04 02:47:16;;;;;;;4.50;3.72;;;20.90;99.90;;;;;;5053502;28;20025;-47
2023/02/04 02:49:42;;;;;;;5.35;4.10;;;20.90;99.90;;;;;;5053681;28;20044;-48
2023/02/04 02:52:12;;;;;;;7.32;4.32;;;20.90;99.90;;;;;;5053577;28;20426;-47
2023/02/04 02:54:39;;;;;;;6.93;5.13;;;20.80;99.90;;;;;;5053488;28;20110;-48
2023/02/04 02:57:20;;;;;;;6.80;4.20;;;20.80;99.90;;;;;;5053694;28;20025;-48
2023/02/04 02:59:46;;;;;;;6.38;4.72;;;20.80;99.90;;;;;;5065687;22;20097;-60
2023/02/04 03:02:16;;;;;;;4.53;3.58;;;20.80;99.90;;;;;;5052898;28;20116;-58
2023/02/04 03:04:45;;;;;;;6.53;4.75;;;20.80;99.90;;;;;;5053489;28;20017;-58
2023/02/04 03:07:13;;;;;;;7.32;4.38;;;20.80;99.90;;;;;;5035348;28;20025;-58
2023/02/04 03:09:39;;;;;;;6.20;4.35;;;20.80;99.90;;;;;;5035759;28;20488;-59
2023/02/04 03:12:05;;;;;;;5.22;3.78;;;20.80;99.90;;;;;;5053333;28;20029;-58
2023/02/04 03:14:32;;;;;;;5.88;4.63;;;20.80;99.90;;;;;;5035251;28;20025;-58
2023/02/04 03:17:00;;;;;;;5.70;4.13;;;20.70;99.90;;;;;;5053114;28;20029;-60
2023/02/04 03:19:27;;;;;;;6.85;3.65;;;20.80;99.90;;;;;;5052952;28;20033;-57
2023/02/04 03:21:53;;;;;;;4.95;3.97;;;20.70;99.90;;;;;;5052948;28;20036;-57
2023/02/04 03:24:19;;;;;;;6.37;4.57;;;20.70;99.90;;;;;;5052877;28;20024;-58
2023/02/04 03:26:45;;;;;;;6.13;4.18;;;20.70;99.90;;;;;;5035130;28;20360;-59
2023/02/04 03:29:11;;;;;;;5.93;4.00;;;20.70;99.90;;;;;;5052771;28;20036;-60
2023/02/04 03:31:37;;;;;;;4.80;3.85;;;20.70;99.90;;;;;;5052983;28;20083;-57
2023/02/04 03:34:03;;;;;;;6.65;4.25;;;20.70;99.90;;;;;;5052970;28;20120;-57
2023/02/04 03:36:29;;;;;;;6.15;3.65;;;20.60;99.90;;;;;;5052653;28;20104;-58
2023/02/04 03:38:55;;;;;;;5.50;3.70;;;20.60;99.90;;;;;;5052714;28;20113;-57
2023/02/04 03:41:21;;;;;;;9.43;4.05;;;20.60;99.90;;;;;;5052670;28;20024;-58
2023/02/04 03:43:47;;;;;;;5.63;4.03;;;20.60;99.90;;;;;;5052621;28;20032;-57
2023/02/04 03:46:13;;;;;;;5.93;3.75;;;20.60;99.90;;;;;;5052520;28;20037;-57
2023/02/04 03:48:38;;;;;;;5.22;4.20;;;20.60;99.90;;;;;;5052574;28;20032;-57
2023/02/04 03:51:04;;;;;;;7.75;4.07;;;20.60;99.90;;;;;;5052590;28;20040;-59
2023/02/04 03:53:30;;;;;;;6.22;4.20;;;20.60;99.90;;;;;;5034401;28;20037;-59
2023/02/04 03:55:56;;;;;;;4.80;3.47;;;20.60;99.90;;;;;;5052432;28;20106;-58
2023/02/04 03:58:22;;;;;;;4.55;3.53;;;20.50;99.90;;;;;;5052434;28;20025;-57
2023/02/04 04:00:48;;;;;;;4.95;3.95;;;20.50;99.90;;;;;;5052603;28;20049;-57
2023/02/04 04:03:14;;;;;;;5.60;3.55;;;20.50;99.90;;;;;;5052219;28;20031;-58
2023/02/04 04:05:40;;;;;;;4.93;3.63;;;20.50;99.90;;;;;;5034357;28;20052;-59
2023/02/04 04:08:06;;;;;;;5.07;3.53;;;20.50;99.90;;;;;;5052410;28;20056;-59
2023/02/04 04:10:32;;;;;;;6.30;4.00;;;20.50;99.90;;;;;;5052208;28;20025;-61
2023/02/04 04:12:57;;;;;;;4.60;3.58;;;20.50;99.90;;;;;;5051446;28;20048;-59
2023/02/04 04:15:23;;;;;;;5.30;3.53;;;20.40;99.90;;;;;;5052111;28;20366;-59
2023/02/04 04:17:49;;;;;;;5.95;3.53;;;20.40;99.90;;;;;;5052118;28;20029;-59
2023/02/04 04:20:15;;;;;;;4.10;3.38;;;20.40;99.90;;;;;;5051927;28;20029;-59
2023/02/04 04:22:41;;;;;;;6.00;4.10;;;20.40;99.90;;;;;;5051955;28;20461;-59
2023/02/04 04:25:07;;;;;;;4.28;3.42;;;20.40;99.90;;;;;;5052349;28;20035;-60
2023/02/04 04:27:33;;;;;;;4.65;3.40;;;20.40;99.90;;;;;;5052003;28;20025;-60
2023/02/04 04:29:59;;;;;;;4.57;3.72;;;20.40;99.90;;;;;;5051909;28;20025;-60
2023/02/04 04:32:25;;;;;;;5.07;3.25;;;20.40;99.90;;;;;;5051917;28;20117;-60
2023/02/04 04:34:51;;;;;;;4.53;3.47;;;20.40;99.90;;;;;;5051986;28;20053;-59
2023/02/04 04:37:16;;;;;;;4.13;3.30;;;20.30;99.90;;;;;;5051875;28;20040;-60
2023/02/04 04:39:42;;;;;;;5.10;3.47;;;20.30;99.90;;;;;;5051903;28;20067;-60
2023/02/04 04:42:08;;;;;;;4.20;3.60;;;20.30;99.90;;;;;;5052075;28;20104;-59
2023/02/04 04:44:34;;;;;;;4.57;3.35;;;20.30;99.90;;;;;;5051885;28;20025;-59
2023/02/04 04:47:00;;;;;;;4.22;3.50;;;20.30;99.90;;;;;;5051941;28;20105;-59
2023/02/04 04:49:26;;;;;;;3.88;2.88;;;20.30;99.90;;;;;;5051915;28;20376;-59
2023/02/04 04:51:51;;;;;;;5.82;3.30;;;20.30;99.90;;;;;;5051756;28;20021;-58
2023/02/04 04:54:17;;;;;;;4.00;3.20;;;20.30;99.90;;;;;;5051928;28;20032;-58
2023/02/04 04:56:43;;;;;;;4.25;2.92;;;20.20;99.90;;;;;;5051898;28;20437;-59
2023/02/04 05:01:39;;;;;;;3.50;2.78;;;20.20;99.90;;;;;;5049689;28;20049;-57
2023/02/04 05:04:05;;;;;;;4.85;3.17;;;20.20;99.90;;;;;;5051680;28;20073;-58
2023/02/04 05:06:30;;;;;;;4.38;2.90;;;20.20;99.90;;;;;;5051551;28;20362;-57
2023/02/04 05:08:56;;;;;;;4.78;3.13;;;20.20;99.90;;;;;;5051607;28;20100;-57
2023/02/04 05:11:22;;;;;;;3.97;2.90;;;20.20;99.90;;;;;;5051661;28;20492;-56
2023/02/04 05:13:47;;;;;;;5.93;3.30;;;20.20;99.90;;;;;;5051539;28;20033;-57
2023/02/04 05:16:14;;;;;;;6.85;3.08;;;20.20;99.90;;;;;;5051555;28;20099;-57
2023/02/04 05:18:40;;;;;;;5.13;3.15;;;20.10;99.90;;;;;;5051639;28;20107;-57
2023/02/04 05:21:06;;;;;;;4.82;3.15;;;20.10;99.90;;;;;;5051435;28;20021;-56
2023/02/04 05:23:33;;;;;;;4.00;2.92;;;20.10;99.90;;;;;;5033528;28;20025;-56
2023/02/04 05:26:01;;;;;;;3.42;2.70;;;20.10;99.90;;;;;;5054292;28;20095;-58
2023/02/04 05:28:26;;;;;;;3.17;2.65;;;20.10;99.90;;;;;;5054993;28;20096;-57
2023/02/04 05:30:55;;;;;;;4.22;2.80;;;20.10;99.90;;;;;;5054928;28;20100;-54
2023/02/04 05:33:21;;;;;;;3.60;2.70;;;20.10;99.90;;;;;;5037062;28;20044;-56
2023/02/04 05:35:46;;;;;;;5.75;3.13;;;20.10;99.90;;;;;;5054867;28;20025;-58
2023/02/04 05:38:12;;;;;;;3.33;2.63;;;20.00;99.90;;;;;;5055181;28;20033;-58
2023/02/04 05:40:38;;;;;;;3.85;2.78;;;20.00;99.90;;;;;;5055011;28;20120;-59
2023/02/04 05:43:04;;;;;;;4.47;3.47;;;20.00;99.90;;;;;;5054809;28;20032;-60
2023/02/04 05:45:29;;;;;;;3.83;2.90;;;20.00;99.90;;;;;;5054845;28;20469;-58
2023/02/04 05:47:55;;;;;;;4.57;2.50;;;20.00;99.90;;;;;;5054650;28;20392;-57
2023/02/04 05:50:21;;;;;;;3.88;3.17;;;20.00;99.90;;;;;;5054619;28;20017;-57
2023/02/04 05:52:47;;;;;;;4.88;2.88;;;20.00;99.90;;;;;;5036531;28;20087;-58
2023/02/04 05:55:13;;;;;;;4.80;3.00;;;20.00;99.90;;;;;;5037015;28;20029;-59
2023/02/04 05:57:39;;;;;;;3.00;2.70;;;20.00;99.90;;;;;;5036714;28;20079;-57
2023/02/04 06:00:06;;;;;;;3.45;2.60;;;20.00;99.90;;;;;;5033216;28;20053;-59
2023/02/04 06:02:31;;;;;;;5.28;3.10;;;20.00;99.90;;;;;;5034457;28;20057;-58
2023/02/04 06:04:57;;;;;;;2.90;2.60;;;19.90;99.90;;;;;;5034550;28;20076;-59
2023/02/04 06:07:23;;;;;;;5.20;2.95;;;19.90;99.90;;;;;;5034580;28;20029;-59
2023/02/04 06:09:49;;;;;;;4.20;2.60;;;19.90;99.90;;;;;;5034503;28;20025;-57
2023/02/04 06:12:14;;;;;;;4.07;2.63;;;19.90;99.90;;;;;;5034617;28;20026;-59
2023/02/04 06:14:40;;;;;;;5.68;2.60;;;19.90;99.90;;;;;;5034411;28;20390;-59
2023/02/04 06:17:06;;;;;;;3.60;2.50;;;19.90;99.90;;;;;;5034219;28;20032;-59
2023/02/04 06:19:32;;;;;;;3.60;2.50;;;19.80;99.90;;;;;;5032998;28;20029;-58
2023/02/04 06:21:58;;;;;;;3.90;2.63;;;19.80;99.90;;;;;;5032911;28;20474;-58
2023/02/04 06:24:23;;;;;;;3.80;2.85;;;19.80;99.90;;;;;;5034030;28;20083;-59
2023/02/04 06:26:49;;;;;;;3.78;2.40;;;19.80;99.90;;;;;;5034296;28;20040;-59
2023/02/04 06:29:15;;;;;;;4.63;2.72;;;19.80;99.90;;;;;;5034209;28;20049;-59
2023/02/04 06:31:41;;;;;;;3.83;2.42;;;19.80;99.90;;;;;;5032762;28;20075;-58
2023/02/04 06:34:06;;;;;;;3.42;2.58;;;19.80;99.90;;;;;;5033896;28;20038;-58
2023/02/04 06:36:32;;;;;;;4.65;2.25;;;19.80;99.90;;;;;;5031886;28;20397;-59
2023/02/04 06:38:58;;;;;;;3.15;2.20;;;19.80;99.90;;;;;;5033808;28;20026;-59
2023/02/04 06:41:24;;;;;;;5.25;2.85;;;19.80;99.90;;;;;;5033671;28;20397;-59
2023/02/04 06:43:50;;;;;;;4.55;2.55;;;19.80;99.90;;;;;;5033921;28;20025;-60
2023/02/04 06:46:15;;;;;;;3.10;2.35;;;19.80;99.90;;;;;;5033868;28;20538;-60
2023/02/04 06:48:41;;;;;;;5.07;2.80;;;19.70;99.90;;;;;;5033611;28;20017;-60
2023/02/04 06:51:07;;;;;;;3.20;2.53;;;19.70;99.90;;;;;;5033630;28;20021;-60
2023/02/04 06:53:32;;;;;;;4.40;2.70;;;19.70;99.90;;;;;;5033521;28;20128;-60
2023/02/04 06:55:58;;;;;;;3.55;2.60;;;19.70;99.90;;;;;;5032409;28;20029;-60
2023/02/04 06:58:24;;;;;;;3.40;2.58;;;19.70;99.90;;;;;;5033437;28;20032;-59
2023/02/04 07:00:50;;;;;;;3.55;2.60;;;19.70;99.90;;;;;;5031935;28;20060;-59
2023/02/04 07:03:15;;;;;;;3.00;2.58;;;19.70;99.90;;;;;;5033637;28;20033;-59
2023/02/04 07:05:41;;;;;;;5.93;2.90;;;19.70;99.90;;;;;;5033358;28;20026;-60
2023/02/04 07:08:07;;;;;;;3.38;2.42;;;19.70;99.90;;;;;;5033300;28;20021;-60
2023/02/04 07:10:33;;;;;;;3.30;2.47;;;19.70;99.90;;;;;;5033408;28;20513;-59
2023/02/04 07:12:58;;;;;;;4.10;2.67;;;19.70;99.90;;;;;;5033127;28;20432;-60
2023/02/04 07:15:24;;;;;;;4.00;2.80;;;19.70;99.90;;;;;;5033115;28;20025;-59
2023/02/04 07:17:50;;;;;;;3.67;2.65;;;19.70;99.90;;;;;;5031828;28;20025;-59
2023/02/04 07:20:16;;;;;;;2.35;2.08;;;19.60;99.90;;;;;;5031930;28;20029;-59
2023/02/04 07:22:42;;;;;;;3.53;2.22;;;19.70;99.90;;;;;;5033102;28;20025;-59
2023/02/04 07:25:10;;;;;;;3.20;2.40;;;19.60;99.90;;;;;;5033105;28;20025;-59
2023/02/04 07:27:35;;;;;;;;;;;19.60;99.90;;;;;;5033457;28;20025;-60
2023/02/04 07:30:01;;;;;;;3.13;2.40;;;19.60;99.90;;;;;;5032775;28;20423;-56
2023/02/04 07:32:31;;;;;;;3.53;2.10;;;19.60;99.90;;;;;;5032796;28;20028;-61
2023/02/04 07:34:57;;;;;;;3.42;2.22;;;19.60;99.90;;;;;;5032878;28;20029;-59
2023/02/04 07:37:23;;;;;;;3.78;2.00;;;19.60;99.90;;;;;;5032857;28;20058;-59
2023/02/04 07:39:48;;;;;;;2.92;2.25;;;19.60;99.90;;;;;;5032755;28;20033;-59
2023/02/04 07:42:14;;;;;;;3.58;2.78;;;19.60;99.90;;;;;;5032546;28;20032;-59
2023/02/04 07:44:40;;;;;;;4.53;2.42;;;19.60;99.90;;;;;;5032575;28;20029;-58
2023/02/04 07:47:06;;;;;;;3.60;2.58;;;19.60;99.90;;;;;;5031166;28;20038;-57
2023/02/04 07:49:31;;;;;;;5.07;2.42;;;19.60;99.90;;;;;;5032506;28;20101;-58
2023/02/04 07:51:57;;;;;;;3.55;2.63;;;19.60;99.90;;;;;;5032672;28;20018;-57
2023/02/04 07:54:23;;;;;;;3.78;2.58;;;19.60;99.90;;;;;;5032493;28;20068;-58
2023/02/04 07:56:49;;;;;;;2.30;2.03;;;19.70;99.90;;;;;;5032597;28;20021;-55
2023/02/04 07:59:14;;;;;;;3.28;2.33;;;19.60;99.90;;;;;;5032195;28;20139;-51
2023/02/04 08:01:40;;;;;;;3.53;2.50;;;19.70;99.90;;;;;;5052057;28;20090;-56
2023/02/04 08:04:06;;;;;;;3.53;2.70;;;19.70;99.90;;;;;;5052380;28;20082;-56
2023/02/04 08:06:31;;;;;;;2.75;2.47;;;19.70;99.90;;;;;;5052229;28;20044;-56
2023/02/04 08:08:57;;;;;;;2.58;2.25;;;19.70;99.90;;;;;;5052223;28;20388;-55
2023/02/04 08:11:23;;;;;;;3.78;2.17;;;19.80;99.90;;;;;;5052112;28;20447;-57
2023/02/04 08:13:49;;;;;;;5.65;2.30;;;19.80;99.90;;;;;;5052257;28;20094;-61
2023/02/04 08:16:14;;;;;;;3.15;2.45;;;19.80;99.90;;;;;;5051574;28;20127;-61
2023/02/04 08:18:40;;;;;;;4.10;2.50;;;19.80;99.90;;;;;;5051150;28;20029;-56
2023/02/04 08:21:06;;;;;;;5.30;2.35;;;19.80;99.90;;;;;;5051839;28;20079;-55
2023/02/04 08:23:34;;;;;;;5.18;2.70;;;19.80;99.90;;;;;;5051533;28;20017;-58
2023/02/04 08:26:00;;;;;;;4.60;2.47;;;19.90;99.90;;;;;;5051704;28;20038;-56
2023/02/04 08:28:26;;;;;;;4.47;2.17;;;19.90;99.90;;;;;;5051710;28;20017;-57
2023/02/04 08:30:52;;;;;;;3.08;2.17;;;19.90;99.90;;;;;;5051467;28;20114;-56
2023/02/04 08:33:18;;;;;;;4.78;2.10;;;19.90;99.90;;;;;;5051752;28;20025;-57
2023/02/04 08:35:44;;;;;;;3.63;2.60;;;19.90;99.90;;;;;;5051296;28;20028;-56
2023/02/04 08:38:10;;;;;;;8.27;2.65;;;20.00;99.90;;;;;;5051391;28;20021;-58
2023/02/04 08:40:35;;;;;;;4.65;2.53;;;20.00;99.90;;;;;;5051386;28;20032;-57
2023/02/04 08:43:01;;;;;;;5.32;2.55;;;20.00;99.90;;;;;;5051413;28;20021;-57
2023/02/04 08:45:27;;;;;;;6.75;3.20;;;20.00;99.90;;;;;;5051419;28;20025;-57
2023/02/04 08:47:53;;;;;;;4.47;2.72;;;20.10;99.90;;;;;;5041888;28;20053;-59
2023/02/04 08:50:18;;;;;;;4.65;2.40;;;20.10;99.90;;;;;;5051339;28;20055;-60
2023/02/04 08:52:44;;;;;;;4.97;2.80;;;20.10;99.90;;;;;;5039722;28;20396;-62
2023/02/04 08:55:10;;;;;;;4.05;2.40;;;20.10;99.90;;;;;;5051098;28;20380;-61
2023/02/04 08:57:36;;;;;;;5.05;2.63;;;20.10;99.90;;;;;;5050960;28;20523;-69
2023/02/04 09:00:02;;;;;;;5.15;2.97;;;20.20;99.90;;;;;;5052402;28;20073;-70
2023/02/04 09:02:28;;;;;;;7.20;3.65;;;20.20;99.90;;;;;;5054896;28;20086;-64
2023/02/04 09:04:54;;;;;;;7.18;4.03;;;20.20;99.90;;;;;;5054922;28;20028;-66
2023/02/04 09:07:20;;;;;;;5.97;3.97;;;20.20;99.90;;;;;;5054763;28;20017;-62
2023/02/04 09:09:46;;;;;;;6.35;4.40;;;20.20;99.90;;;;;;5045216;28;20094;-59
2023/02/04 09:12:11;;;;;;;7.05;4.32;;;20.30;99.90;;;;;;5054696;28;20025;-63
2023/02/04 09:14:37;;;;;;;8.38;4.95;;;20.30;99.90;;;;;;5055098;28;20033;-61
2023/02/04 09:17:04;;;;;;;11.82;5.85;;;20.30;99.90;;;;;;5055339;28;20029;-61
2023/02/04 09:19:30;;;;;;;9.82;5.50;;;20.30;99.90;;;;;;5055118;28;20108;-61
2023/02/04 09:21:56;;;;;;;10.45;6.15;;;20.40;99.90;;;;;;5055283;28;20021;-62
2023/02/04 09:24:22;;;;;;;9.75;6.40;;;20.40;99.90;;;;;;5054698;28;20496;-62
2023/02/04 09:26:48;;;;;;;13.77;7.75;;;20.40;99.90;;;;;;5054965;28;20021;-61
2023/02/04 09:29:14;;;;;;;18.65;8.68;;;20.40;99.90;;;;;;5054985;28;20376;-61
2023/02/04 09:31:40;;;;;;;22.60;10.73;;;20.40;99.90;;;;;;5054941;28;20029;-62
2023/02/04 09:34:07;;;;;;;26.38;14.32;;;20.50;99.90;;;;;;5054977;28;20033;-62
2023/02/04 09:36:36;;;;;;;43.15;16.13;;;20.50;99.90;;;;;;5054843;28;20025;-61
2023/02/04 09:39:08;;;;;;;27.70;13.60;;;20.50;99.90;;;;;;5054795;28;20025;-60
2023/02/04 09:41:34;;;;;;;24.80;13.73;;;20.50;99.90;;;;;;5053380;28;20491;-62
2023/02/04 09:44:00;;;;;;;22.92;13.02;;;20.60;99.90;;;;;;5053179;28;20033;-63
2023/02/04 09:46:28;;;;;;;24.83;13.50;;;20.50;99.90;;;;;;5054971;28;20389;-59
2023/02/04 09:48:54;;;;;;;25.17;14.07;;;20.60;99.90;;;;;;5054937;28;20031;-61
2023/02/04 09:51:24;;;;;;;26.75;15.02;;;20.60;99.90;;;;;;5054588;28;20083;-62
2023/02/04 09:53:54;;;;;;;26.92;14.48;;;20.70;99.90;;;;;;5054442;28;20045;-63
2023/02/04 09:56:20;;;;;;;25.15;13.93;;;20.70;99.90;;;;;;5054388;28;20044;-62
2023/02/04 09:58:46;;;;;;;24.85;14.55;;;20.70;99.90;;;;;;5054548;28;20029;-61
2023/02/04 10:01:17;;;;;;;27.70;15.88;;;20.80;99.90;;;;;;5054337;28;20045;-59
2023/02/04 10:03:45;;;;;;;27.40;14.77;;;20.80;99.90;;;;;;5054240;28;20125;-57
2023/02/04 10:06:14;;;;;;;27.13;16.02;;;20.80;99.90;;;;;;5054214;28;20021;-60
2023/02/04 10:08:40;;;;;;;25.70;14.90;;;20.80;99.90;;;;;;5054286;28;20486;-61
2023/02/04 10:11:08;;;;;;;26.50;15.00;;;20.90;99.90;;;;;;5052907;28;20209;-61
2023/02/04 10:13:41;;;;;;;26.13;16.20;;;20.90;99.90;;;;;;5054191;28;20033;-63
2023/02/04 10:16:18;;;;;;;26.50;15.82;;;20.90;99.90;;;;;;5054084;28;20370;-59
2023/02/04 10:18:44;;;;;;;;;;;21.00;99.90;;;;;;5053245;28;20053;-60
2023/02/04 10:21:23;;;;;;;28.98;16.48;;;21.10;99.90;;;;;;5054225;28;20366;-62
2023/02/04 10:23:52;;;;;;;27.90;15.73;;;21.10;99.90;;;;;;5054195;28;20608;-61
2023/02/04 10:26:20;;;;;;;29.20;16.13;;;21.20;99.90;;;;;;5054139;28;20017;-62
2023/02/04 10:28:48;;;;;;;27.58;16.30;;;21.20;99.90;;;;;;5053997;28;20540;-59
2023/02/04 10:31:38;;;;;;;30.83;16.98;;;21.20;99.90;;;;;;5054323;28;20020;-60
2023/02/04 10:34:05;;;;;;;28.10;16.10;;;21.30;99.90;;;;;;5053991;28;20036;-59
2023/02/04 10:36:31;;;;;;;30.67;16.35;;;21.30;99.90;;;;;;5053664;28;20021;-60
2023/02/04 10:39:05;;;;;;;23.73;15.80;;;21.40;99.90;;;;;;5053828;28;20040;-61
2023/02/04 10:41:33;;;;;;;28.92;16.45;;;21.40;99.90;;;;;;5053420;28;20017;-58
2023/02/04 10:44:33;;;;;;;28.98;16.77;;;21.40;99.90;;;;;;5053660;28;20021;-58
2023/02/04 10:47:08;;;;;;;29.98;16.73;;;21.50;99.90;;;;;;5053688;28;20021;-61
2023/02/04 10:49:38;;;;;;;31.40;15.98;;;21.50;99.90;;;;;;5052085;28;20043;-60
2023/02/04 10:52:15;;;;;;;29.75;16.67;;;21.60;99.90;;;;;;5053428;28;20028;-68
2023/02/04 10:54:41;;;;;;;24.90;15.75;;;21.60;99.90;;;;;;5053769;28;20400;-65
2023/02/04 10:57:14;;;;;;;27.23;16.52;;;21.70;99.90;;;;;;5053427;28;20027;-70
2023/02/04 10:59:40;;;;;;;26.35;15.25;;;21.70;99.90;;;;;;5053096;28;20452;-70
2023/02/04 11:02:41;;;;;;;27.38;14.80;;;21.70;99.90;;;;;;5053412;28;20021;-59
2023/02/04 11:05:33;;;;;;;27.67;15.55;;;21.80;99.90;;;;;;5045994;28;20025;-61
2023/02/04 11:08:00;;;;;;;28.15;14.90;;;21.80;99.90;;;;;;5031659;28;20388;-59
2023/02/04 11:10:33;;;;;;;29.73;15.60;;;21.90;99.90;;;;;;5033301;28;20040;-60
2023/02/04 11:13:06;;;;;;;32.13;14.65;;;21.90;99.90;;;;;;5050655;28;20407;-58
2023/02/04 11:15:46;;;;;;;28.42;14.88;;;21.90;99.90;;;;;;5050098;28;20041;-58
2023/02/04 11:18:20;;;;;;;37.90;15.20;;;22.00;99.90;;;;;;5049257;28;20064;-60
2023/02/04 11:20:52;;;;;;;27.67;15.77;;;22.00;99.90;;;;;;5050075;28;20020;-60
2023/02/04 11:23:29;;;;;;;27.90;15.05;;;22.10;99.90;;;;;;5032726;28;20029;-60
2023/02/04 11:26:06;;;;;;;;;;;22.10;99.90;;;;;;5050483;28;20056;-59
2023/02/04 11:28:39;;;;;;;26.25;13.70;;;22.20;99.90;;;;;;5050646;28;19991;-60
2023/02/04 11:31:15;;;;;;;23.27;13.52;;;22.20;99.90;;;;;;5050518;28;20032;-61
2023/02/04 11:33:41;;;;;;;32.33;14.38;;;22.20;99.90;;;;;;5048643;28;20044;-62
2023/02/04 11:36:10;;;;;;;26.98;14.32;;;22.20;99.90;;;;;;5046482;28;20035;-61
2023/02/04 11:38:37;;;;;;;28.25;15.10;;;22.20;99.90;;;;;;5050139;28;20025;-58
2023/02/04 11:41:04;;;;;;;25.50;15.40;;;22.30;99.90;;;;;;5050182;28;20183;-57
2023/02/04 11:43:33;;;;;;;25.95;14.13;;;22.30;99.90;;;;;;5050073;28;20033;-55
2023/02/04 11:46:20;;;;;;;27.00;15.15;;;22.30;99.90;;;;;;5049954;28;20017;-58
2023/02/04 11:48:46;;;;;;;27.63;13.75;;;22.40;99.90;;;;;;5049334;28;20028;-56
2023/02/04 11:51:17;;;;;;;28.02;13.18;;;22.40;99.90;;;;;;5049802;28;20094;-58
2023/02/04 11:53:43;;;;;;;28.00;15.88;;;22.40;99.90;;;;;;5047346;28;20714;-58
2023/02/04 11:56:20;;;;;;;29.75;14.43;;;22.50;99.90;;;;;;5049785;28;20037;-63
2023/02/04 11:58:49;;;;;;;26.07;11.23;;;22.50;99.90;;;;;;5032119;28;20032;-66
2023/02/04 12:01:24;;;;;;;18.38;9.93;;;22.50;99.90;;;;;;5049573;28;20037;-58
2023/02/04 12:03:58;;;;;;;17.00;10.82;;;22.60;99.90;;;;;;5047747;28;20084;-56
2023/02/04 12:06:29;;;;;;;19.30;9.43;;;22.60;99.90;;;;;;5049017;28;20025;-65
2023/02/04 12:09:21;;;;;;;17.20;9.40;;;22.70;99.90;;;;;;5049609;28;20029;-58
2023/02/04 12:11:53;;;;;;;8.13;5.00;;;22.70;99.90;;;;;;5048064;28;20013;-59
2023/02/04 12:14:20;;;;;;;11.88;7.38;;;22.80;99.90;;;;;;5049610;28;20105;-53
2023/02/04 12:16:47;;;;;;;9.32;6.00;;;22.80;99.90;;;;;;5048587;28;20013;-66
2023/02/04 12:19:13;;;;;;;;;;;22.80;99.90;;;;;;5049568;28;20024;-65
2023/02/04 12:21:40;;;;;;;9.25;5.43;;;22.90;99.90;;;;;;5049179;28;20265;-66
2023/02/04 12:24:06;;;;;;;8.52;5.20;;;22.90;99.90;;;;;;5049493;28;20021;-65
2023/02/04 12:26:32;;;;;;;10.23;5.30;;;22.90;99.90;;;;;;5032062;28;20037;-60
2023/02/04 12:29:02;;;;;;;11.07;5.97;;;22.90;99.90;;;;;;5049521;28;20025;-59
2023/02/04 12:31:28;;;;;;;7.95;4.25;;;23.00;99.90;;;;;;5031651;28;20500;-62
2023/02/04 12:33:54;;;;;;;5.30;2.05;;;23.00;99.90;;;;;;5049862;28;20044;-53
2023/02/04 12:36:20;;;;;;;10.50;4.55;;;23.00;99.90;;;;;;5053159;28;20025;-60
2023/02/04 12:38:46;;;;;;;9.32;3.83;;;23.00;99.90;;;;;;5053856;28;20033;-58
2023/02/04 12:41:12;;;;;;;6.70;3.55;;;23.00;99.90;;;;;;5048492;28;20034;-63
2023/02/04 12:43:38;;;;;;;12.40;3.47;;;23.00;99.90;;;;;;5052944;28;20071;-65
2023/02/04 12:46:03;;;;;;;5.85;3.17;;;23.10;99.90;;;;;;5044400;28;20027;-65